Bei Facebook empfehlenBei Twitter postenGoogle plusPinterest

Das Wetter im Erzgebirge am 26.12.2016

Wetter und Klima am 26.12.2016 Holzhau im Erzgebirge (630m ü.NN)
Letzte gemessene Temperatur und Uhrzeit der Messung23:45:00 Uhr0.40 °C
Temperatur (Maximum / Höchstwert) und Uhrzeit der Messung14:15:00 Uhr6.60 °C
Temperatur (Minimum / Tiefstwert) und Uhrzeit der Messung23:15:000.10 °C
Errechneter Absolutwert der Temperaturschwankungen zwischen Tmin und Tmax des Tages6.50 K
Errechnete Tagesmitteltemperatur4.20104 °C
Gesamt - Niederschlag des Tages (in flüssiger Form)0.52 Liter / m²
Luftdruck (Maximum / Höchstwert) und Zeitpunkt der Messung22:15:00 Uhr1022.60 hPa
Luftdruck (Minimum / Tiefstwert) und Zeitpunkt der Messung14:45:00 Uhr1017.40 hPa
Errechneter Absolutwert der Luftdruckschwankungen des Tages5.20 hPa
Höchste gemessene Windgeschwindigkeit und Uhrzeit der Messung23:45:00 Uhr0.00 km/h
Errechnete Windhäufigkeit in Relation zu den Messwerten des Tages0.00000 %
Niedrigste Windkühle (Windchill) und Zeitpunkt der Messung23:15:00 Uhr0.10 °C
Taupunkt (Maximum / Höchstwert) und Uhrzeit der Messung13:15:00 Uhr5.50 °C
Taupunkt (Minimum / Tiefstwert) und Uhrzeit der Messung23:15:00-1.60 °C
Anzahl der automatisch eingelesenen Messwerte 96

Detaillierte Wetter- und Klima- Messwerte für den 26.12.2016 in Holzhau im Erzgebirge (630m ü.NN)
ZeitTemperaturLuftdruckRel. LuftfeuchteWindWindrichtungWindchillTaupunktNiederschlag l/m²
23:45:000.40 °C1022.50 hPa87.00 %-1.50 °C0.52
23:30:000.30 °C1022.40 hPa88.00 %-1.40 °C0.52
23:15:000.10 °C1022.50 hPa88.00 %-1.60 °C0.52
23:00:000.30 °C1022.50 hPa88.00 %-1.40 °C0.52
22:45:000.50 °C1022.40 hPa89.00 %-1.10 °C0.52
22:30:000.80 °C1022.50 hPa90.00 %-0.60 °C0.52
22:15:000.80 °C1022.60 hPa90.00 %-0.60 °C0.52
22:00:000.90 °C1022.30 hPa91.00 %-0.40 °C0.52
21:45:001.00 °C1022.20 hPa91.00 %-0.30 °C0.52
21:30:001.30 °C1022.00 hPa92.00 %0.10 °C0.52
21:15:001.40 °C1021.70 hPa93.00 %0.40 °C0.52
21:00:001.50 °C1021.40 hPa93.00 %0.50 °C0.52
20:45:001.60 °C1021.10 hPa93.00 %0.60 °C0.52
20:30:001.60 °C1021.20 hPa93.00 %0.60 °C0.52
20:15:001.50 °C1020.80 hPa94.00 %0.60 °C0.52
20:00:001.40 °C1020.70 hPa94.00 %0.50 °C0.52
19:45:001.50 °C1020.70 hPa93.00 %0.50 °C0.52
19:30:001.80 °C1020.60 hPa94.00 %0.90 °C0.52
19:15:001.80 °C1020.60 hPa94.00 %0.90 °C0.52
19:00:001.90 °C1020.40 hPa95.00 %1.20 °C0.52
18:45:001.90 °C1020.20 hPa95.00 %1.20 °C0.52
18:30:001.90 °C1020.00 hPa95.00 %1.20 °C0.52
18:15:001.90 °C1019.80 hPa95.00 %1.20 °C0.52
18:00:002.10 °C1019.60 hPa95.00 %1.40 °C0.52
17:45:002.10 °C1019.70 hPa95.00 %1.40 °C0.52
17:30:001.90 °C1019.60 hPa95.00 %1.20 °C0.52
17:15:001.90 °C1019.30 hPa94.00 %1.00 °C0.52
17:00:002.10 °C1019.30 hPa94.00 %1.20 °C0.52
16:45:002.50 °C1018.70 hPa94.00 %1.60 °C0.52
16:30:002.80 °C1019.00 hPa94.00 %1.90 °C0.52
16:15:003.10 °C1018.90 hPa94.00 %2.20 °C0.52
16:00:003.40 °C1018.80 hPa93.00 %2.40 °C0.52
15:45:004.30 °C1018.80 hPa93.00 %3.30 °C0.52
15:30:005.90 °C1018.50 hPa93.00 %4.90 °C 
15:15:006.10 °C1017.50 hPa93.00 %5.10 °C 
15:00:006.30 °C1017.50 hPa92.00 %5.10 °C 
14:45:006.40 °C1017.40 hPa92.00 %5.20 °C 
14:30:006.50 °C1017.60 hPa92.00 %5.30 °C 
14:15:006.60 °C1017.60 hPa92.00 %5.40 °C 
14:00:006.60 °C1017.50 hPa92.00 %5.40 °C 
13:45:006.60 °C1017.40 hPa92.00 %5.40 °C 
13:30:006.60 °C1017.60 hPa92.00 %5.40 °C 
13:15:006.50 °C1017.50 hPa93.00 %5.50 °C 
13:00:006.50 °C1017.70 hPa93.00 %5.50 °C 
12:45:006.40 °C1017.60 hPa94.00 %5.50 °C 
12:30:006.20 °C1017.70 hPa94.00 %5.30 °C 
12:15:005.90 °C1018.00 hPa94.00 %5.00 °C 
12:00:005.90 °C1018.50 hPa94.00 %5.00 °C 
11:45:005.80 °C1018.60 hPa94.00 %4.90 °C 
11:30:005.80 °C1018.60 hPa94.00 %4.90 °C 
11:15:005.60 °C1018.80 hPa94.00 %4.70 °C 
11:00:005.60 °C1018.90 hPa95.00 %4.90 °C 
10:45:005.40 °C1019.10 hPa95.00 %4.70 °C 
10:30:005.30 °C1018.80 hPa95.00 %4.60 °C 
10:15:005.20 °C1019.20 hPa94.00 %4.30 °C 
10:00:005.20 °C1019.10 hPa94.00 %4.30 °C 
09:45:005.20 °C1019.00 hPa94.00 %4.30 °C 
09:30:005.10 °C1019.10 hPa95.00 %4.40 °C 
09:15:005.10 °C1019.20 hPa95.00 %4.40 °C 
09:00:005.20 °C1019.30 hPa95.00 %4.50 °C 
08:45:005.20 °C1019.30 hPa95.00 %4.50 °C 
08:30:005.30 °C1019.00 hPa95.00 %4.60 °C 
08:15:005.30 °C1019.00 hPa95.00 %4.60 °C 
08:00:005.30 °C1019.20 hPa95.00 %4.60 °C 
07:45:005.30 °C1018.90 hPa95.00 %4.60 °C 
07:30:005.30 °C1019.10 hPa95.00 %4.60 °C 
07:15:005.30 °C1018.80 hPa95.00 %4.60 °C 
07:00:005.50 °C1019.00 hPa96.00 %4.90 °C 
06:45:005.50 °C1018.90 hPa96.00 %4.90 °C 
06:30:005.40 °C1019.00 hPa96.00 %4.80 °C 
06:15:005.30 °C1019.20 hPa96.00 %4.70 °C 
06:00:005.40 °C1019.10 hPa96.00 %4.80 °C 
05:45:005.40 °C1019.00 hPa96.00 %4.80 °C 
05:30:005.30 °C1018.90 hPa97.00 %4.90 °C 
05:15:005.30 °C1019.20 hPa97.00 %4.90 °C 
05:00:005.30 °C1019.00 hPa97.00 %4.90 °C 
04:45:005.30 °C1019.20 hPa97.00 %4.90 °C 
04:30:005.40 °C1019.30 hPa97.00 %5.00 °C 
04:15:005.40 °C1019.10 hPa97.00 %5.00 °C 
04:00:005.30 °C1019.10 hPa98.00 %5.00 °C 
03:45:005.30 °C1019.00 hPa98.00 %5.00 °C 
03:30:005.30 °C1019.40 hPa98.00 %5.00 °C 
03:15:005.30 °C1019.30 hPa98.00 %5.00 °C 
03:00:005.30 °C1019.30 hPa98.00 %5.00 °C 
02:45:005.20 °C1019.40 hPa98.00 %4.90 °C 
02:30:005.20 °C1019.30 hPa98.00 %4.90 °C 
02:15:005.20 °C1019.30 hPa98.00 %4.90 °C 
02:00:005.10 °C1019.40 hPa98.00 %4.80 °C 
01:45:005.10 °C1019.30 hPa98.00 %4.80 °C 
01:30:005.10 °C1019.40 hPa98.00 %4.80 °C 
01:15:005.10 °C1019.20 hPa98.00 %4.80 °C 
01:00:005.10 °C1019.10 hPa98.00 %4.80 °C 
00:45:005.10 °C1019.40 hPa98.00 %4.80 °C 
00:30:005.10 °C1019.30 hPa98.00 %4.80 °C 
00:15:005.10 °C1019.40 hPa98.00 %4.80 °C 
00:00:005.10 °C1019.20 hPa98.00 %4.80 °C 

Permanenter Link zu dieser Seite: Wetter im Erzgebirge am 26.12.2016
Performance-Info: Die Erstellung der Seite / Statistik(en) / Tabelle(n) erforderte 5 Datenbankserver-Abfrage(n) und dauerte 96 Millisekunden. (Dieser Messwert ist von der Gesamt-Auslastung des Servers abhängig.)
Erzgebirge - Wetter | Erzgebirge - Wetter (Mobilgeräte) | Komplette Klimadatenbank